Time;durP1;ratioP1;P1;durP2;ratioP2;P2;SDS_P1;SDS_P2;PMS_P1;PMS_P2;Temp;Humidity;BMP_temperature;BMP_pressure;BME280_temperature;BME280_humidity;BME280_pressure;Samples;Min_cycle;Max_cycle;Signal;HPM_P1;HPM_P2
2024/01/10 00:00:22;;;;;;;10.95;5.15;;;;;;;-4.90;60.87;101040.63;4944097;29;20031;-91
2024/01/10 00:02:48;;;;;;;9.05;4.88;;;;;;;-4.98;61.46;101037.81;4943987;29;20051;-90
2024/01/10 00:05:13;;;;;;;18.92;5.10;;;;;;;-4.97;63.06;101054.41;4943796;29;20038;-91
2024/01/10 00:07:39;;;;;;;10.65;5.53;;;;;;;-4.79;62.74;101070.41;4943605;29;20035;-91
2024/01/10 00:10:05;;;;;;;9.70;5.10;;;;;;;-5.07;61.89;101055.13;4944803;29;20103;-91
2024/01/10 00:12:35;;;;;;;14.40;5.07;;;;;;;-5.09;62.68;101064.09;4944324;29;20054;-90
2024/01/10 00:15:05;;;;;;;8.75;4.30;;;;;;;-5.30;62.60;101046.50;4929283;29;20027;-92
2024/01/10 00:17:31;;;;;;;9.63;4.43;;;;;;;-5.37;62.48;101061.09;4944482;29;20034;-90
2024/01/10 00:19:56;;;;;;;7.85;3.78;;;;;;;-5.35;61.95;101045.22;4957201;28;20026;-91
2024/01/10 00:22:22;;;;;;;12.85;4.07;;;;;;;-5.40;61.33;101058.69;4953055;28;20027;-91
2024/01/10 00:24:48;;;;;;;9.77;5.18;;;;;;;-5.29;60.87;101053.44;4948835;28;20061;-90
2024/01/10 00:27:13;;;;;;;10.03;4.17;;;;;;;-5.18;61.18;101062.25;4962456;28;20064;-90
2024/01/10 00:29:39;;;;;;;8.85;3.95;;;;;;;-5.28;61.46;101056.88;4931216;28;20031;-92
2024/01/10 00:32:05;;;;;;;10.07;4.45;;;;;;;-5.18;61.21;101081.44;4931229;28;20086;-91
2024/01/10 00:34:30;;;;;;;13.07;4.85;;;;;;;-5.32;62.67;101063.34;4947228;28;20023;-92
2024/01/10 00:36:56;;;;;;;10.37;5.00;;;;;;;-5.40;62.69;101077.06;4938699;29;20444;-91
2024/01/10 00:39:22;;;;;;;14.55;4.88;;;;;;;-5.32;61.86;101071.22;4952550;28;20035;-91
2024/01/10 00:41:47;;;;;;;10.10;5.00;;;;;;;-5.38;61.90;101056.78;4958197;28;20031;-90
2024/01/10 00:44:13;;;;;;;10.88;5.38;;;;;;;-5.24;62.46;101075.84;4948183;29;20055;-91
2024/01/10 00:46:38;;;;;;;14.40;5.93;;;;;;;-5.00;61.84;101099.28;4927177;29;20043;-91
2024/01/10 00:49:04;;;;;;;8.75;3.70;;;;;;;-5.06;61.99;101095.38;4930381;28;20081;-90
2024/01/10 00:51:29;;;;;;;8.85;5.22;;;;;;;-5.19;63.57;101086.81;4958793;28;20089;-91
2024/01/10 00:53:55;;;;;;;10.57;5.20;;;;;;;-5.26;63.87;101080.41;4953807;28;20050;-90
2024/01/10 00:56:21;;;;;;;9.13;5.43;;;;;;;-5.37;64.55;101079.47;4958674;28;20033;-91
2024/01/10 00:58:46;;;;;;;12.70;5.45;;;;;;;-5.33;63.44;101059.06;4926551;29;20047;-92
2024/01/10 01:01:12;;;;;;;9.68;5.18;;;;;;;-5.21;64.57;101050.16;4927011;29;20059;-90
2024/01/10 01:03:37;;;;;;;9.52;4.78;;;;;;;-5.04;64.01;101064.56;4942833;29;20071;-91
2024/01/10 01:06:03;;;;;;;7.18;4.55;;;;;;;-5.18;63.00;101059.63;4943608;29;20086;-90
2024/01/10 01:08:28;;;;;;;7.38;4.28;;;;;;;-5.19;59.37;101056.13;4942335;29;20050;-90
2024/01/10 01:10:54;;;;;;;9.00;4.00;;;;;;;-5.26;59.32;101035.78;4927782;29;20031;-90
2024/01/10 01:13:20;;;;;;;8.70;4.57;;;;;;;-5.31;59.31;101036.16;4927341;29;20027;-91
2024/01/10 01:15:45;;;;;;;12.85;5.00;;;;;;;-5.20;62.35;101062.34;4942861;29;20026;-92
2024/01/10 01:18:12;;;;;;;8.00;5.00;;;;;;;-5.23;64.90;101073.09;4927267;29;20027;-91
2024/01/10 01:20:38;;;;;;;11.40;5.18;;;;;;;-5.64;65.52;101039.66;4927249;29;20026;-91
2024/01/10 01:23:04;;;;;;;11.70;5.95;;;;;;;-5.61;66.92;101053.38;4942425;29;20031;-91
2024/01/10 01:25:29;;;;;;;9.05;5.07;;;;;;;-5.60;66.43;101059.44;4926136;29;20030;-91
2024/01/10 01:27:55;;;;;;;11.70;5.43;;;;;;;-5.61;67.15;101056.00;4942793;29;20035;-92
2024/01/10 01:30:21;;;;;;;11.63;5.47;;;;;;;-5.60;67.14;101072.56;4926409;29;20118;-92
2024/01/10 01:32:47;;;;;;;8.32;5.13;;;;;;;-5.67;66.19;101061.72;4930918;28;20022;-91
2024/01/10 01:35:21;;;;;;;9.90;5.00;;;;;;;-5.78;66.81;101059.13;4929343;28;20031;-91
2024/01/10 01:37:47;;;;;;;7.43;4.70;;;;;;;-5.93;66.51;101053.31;4957141;28;20048;-91
2024/01/10 01:40:12;;;;;;;10.18;4.93;;;;;;;-5.99;67.14;101049.41;4949374;28;20035;-91
2024/01/10 01:42:38;;;;;;;9.33;4.97;;;;;;;-5.99;66.79;101048.56;4954813;28;20149;-92
2024/01/10 01:45:04;;;;;;;17.10;5.77;;;;;;;-6.12;68.02;101057.38;4952049;28;20074;-91
2024/01/10 01:47:29;;;;;;;9.80;5.20;;;;;;;-6.11;66.96;101047.72;4945736;28;20041;-91
2024/01/10 01:49:55;;;;;;;10.30;5.43;;;;;;;-5.99;67.10;101048.56;4928535;28;20057;-91
2024/01/10 01:52:21;;;;;;;10.10;5.57;;;;;;;-6.07;67.07;101038.66;4929030;28;20146;-91
2024/01/10 01:54:46;;;;;;;10.03;5.23;;;;;;;-6.06;68.08;101037.69;4944891;28;20022;-91
2024/01/10 01:57:12;;;;;;;10.77;6.00;;;;;;;-6.11;67.76;101030.19;4945717;28;20030;-91
2024/01/10 01:59:37;;;;;;;7.87;4.90;;;;;;;-6.15;68.45;101036.63;4952958;28;20027;-91
2024/01/10 02:02:03;;;;;;;10.13;5.10;;;;;;;-6.26;68.88;101026.16;4973896;28;20034;-91
2024/01/10 02:04:29;;;;;;;12.43;5.53;;;;;;;-6.40;68.54;101008.88;4949848;28;20030;-91
2024/01/10 02:06:55;;;;;;;10.57;5.93;;;;;;;-6.25;68.34;101038.31;4935564;28;20444;-91
2024/01/10 02:09:20;;;;;;;10.17;6.00;;;;;;;-6.39;68.79;101026.28;4945656;28;20033;-92
2024/01/10 02:11:46;;;;;;;11.03;5.63;;;;;;;-6.46;69.31;101009.34;4948495;28;20035;-91
2024/01/10 02:14:12;;;;;;;10.00;5.83;;;;;;;-6.38;69.11;101022.69;4957966;28;20034;-91
2024/01/10 02:16:37;;;;;;;13.20;5.27;;;;;;;-6.42;70.00;101026.50;4944211;28;20023;-91
2024/01/10 02:19:17;;;;;;;12.90;5.77;;;;;;;-6.46;69.46;101019.81;4970357;28;20034;-91
2024/01/10 02:21:43;;;;;;;9.63;5.57;;;;;;;-6.42;69.86;101020.44;4936170;28;20058;-91
2024/01/10 02:24:09;;;;;;;9.47;5.40;;;;;;;-6.54;69.25;101011.72;4940517;28;20035;-91
2024/01/10 02:26:34;;;;;;;9.60;4.67;;;;;;;-6.45;68.32;101031.13;4974559;28;20065;-91
2024/01/10 02:29:00;;;;;;;11.00;6.03;;;;;;;-6.65;68.76;100998.59;4976190;28;20026;-92
2024/01/10 02:31:27;;;;;;;9.33;5.57;;;;;;;-6.56;69.59;101021.47;4952536;28;20027;-91
2024/01/10 02:33:52;;;;;;;12.40;6.07;;;;;;;-6.59;69.81;101013.88;4944998;28;20038;-91
2024/01/10 02:36:18;;;;;;;7.90;5.10;;;;;;;-6.72;69.10;101003.50;4953833;28;20054;-91
2024/01/10 02:38:44;;;;;;;16.17;6.17;;;;;;;-6.69;68.80;101003.25;4960591;28;20101;-92
2024/01/10 02:41:09;;;;;;;10.13;5.23;;;;;;;-6.64;67.77;101008.13;4960460;28;20413;-91
2024/01/10 02:43:35;;;;;;;9.93;5.63;;;;;;;-6.68;68.01;101019.78;4975790;28;20054;-92
2024/01/10 02:46:00;;;;;;;10.30;5.03;;;;;;;-6.68;68.04;101025.88;4975703;28;20037;-91
2024/01/10 02:48:26;;;;;;;11.83;5.20;;;;;;;-6.67;68.32;101030.16;4959688;28;20035;-91
2024/01/10 02:50:51;;;;;;;7.87;4.97;;;;;;;-6.71;69.41;101021.69;4958283;28;20037;-91
2024/01/10 02:53:17;;;;;;;13.47;6.47;;;;;;;-6.74;69.05;101000.97;4950857;28;20031;-89
2024/01/10 02:55:43;;;;;;;8.10;4.97;;;;;;;-6.63;68.41;101038.63;4951449;28;20027;-91
2024/01/10 02:58:08;;;;;;;10.30;5.20;;;;;;;-6.78;67.90;101004.78;4943740;28;20030;-91
2024/01/10 03:00:34;;;;;;;11.13;5.30;;;;;;;-6.72;68.77;101029.69;4975423;28;20477;-91
2024/01/10 03:02:59;;;;;;;8.10;4.80;;;;;;;-6.77;69.18;101016.91;4960783;28;20089;-89
2024/01/10 03:05:25;;;;;;;15.80;5.70;;;;;;;-6.86;68.67;100999.28;4959259;28;20038;-91
2024/01/10 03:07:51;;;;;;;9.73;4.90;;;;;;;-6.83;69.18;101006.88;4959508;28;20041;-91
2024/01/10 03:10:17;;;;;;;12.97;5.07;;;;;;;-6.71;68.74;101013.00;4975204;28;20034;-91
2024/01/10 03:12:43;;;;;;;11.10;5.80;;;;;;;-6.79;68.39;101003.09;4975574;28;20115;-91
2024/01/10 03:15:09;;;;;;;8.63;4.50;;;;;;;-6.67;69.54;101024.91;4960216;28;20034;-91
2024/01/10 03:17:35;;;;;;;9.50;5.47;;;;;;;-6.80;69.76;100998.00;4946081;28;20420;-91
2024/01/10 03:20:03;;;;;;;9.60;5.57;;;;;;;-6.68;69.23;101025.88;4952829;28;20030;-91
2024/01/10 03:22:30;;;;;;;7.40;4.87;;;;;;;-6.75;69.12;101019.41;4950317;28;20034;-91
2024/01/10 03:24:56;;;;;;;8.67;5.23;;;;;;;-6.82;68.36;101007.75;4945794;28;20058;-91
2024/01/10 03:27:21;;;;;;;10.53;5.77;;;;;;;-6.97;67.89;101004.47;4943298;28;20512;-91
2024/01/10 03:29:46;;;;;;;8.20;4.23;;;;;;;-6.72;68.42;101037.53;4927516;28;20038;-91
2024/01/10 03:32:13;;;;;;;11.00;5.07;;;;;;;-6.93;67.71;101004.16;4943203;28;20461;-89
2024/01/10 03:34:38;;;;;;;8.83;5.00;;;;;;;-6.71;67.52;101036.56;4944639;28;20065;-91
2024/01/10 03:37:05;;;;;;;11.63;6.23;;;;;;;-6.96;67.74;100996.50;4950242;28;20034;-92
2024/01/10 03:39:31;;;;;;;10.93;5.87;;;;;;;-6.87;67.50;101002.84;4951362;28;20168;-90
2024/01/10 03:41:58;;;;;;;9.07;5.40;;;;;;;-6.79;68.50;101010.94;4943179;28;20134;-90
2024/01/10 03:44:26;;;;;;;11.87;4.40;;;;;;;-6.92;68.75;100999.75;4953818;28;20061;-91
2024/01/10 03:46:52;;;;;;;15.30;4.73;;;;;;;-6.74;68.68;101016.69;4943871;28;20030;-92
2024/01/10 03:49:19;;;;;;;10.03;5.47;;;;;;;-6.80;67.79;100996.19;4943973;28;20046;-92
2024/01/10 03:51:44;;;;;;;13.40;6.13;;;;;;;-6.71;68.07;101011.22;4943363;28;20050;-90
2024/01/10 03:54:10;;;;;;;8.53;5.03;;;;;;;-6.91;67.84;101015.34;4943830;28;20026;-91
2024/01/10 03:56:36;;;;;;;9.53;5.60;;;;;;;-6.83;68.20;101030.47;4943720;28;20037;-91
2024/01/10 03:59:03;;;;;;;14.83;5.43;;;;;;;-6.93;68.81;101011.16;4960179;28;20057;-92
2024/01/10 04:01:28;;;;;;;7.83;4.90;;;;;;;-6.92;68.48;101016.28;4942705;28;20039;-91
2024/01/10 04:03:54;;;;;;;7.77;4.80;;;;;;;-7.04;69.04;101006.72;4942770;28;20031;-91
2024/01/10 04:06:20;;;;;;;8.80;5.47;;;;;;;-6.98;68.70;101018.53;4942386;28;20059;-91
2024/01/10 04:08:46;;;;;;;9.47;5.33;;;;;;;-6.94;68.18;101012.09;4942875;28;20043;-91
2024/01/10 04:11:13;;;;;;;9.10;5.37;;;;;;;-6.88;68.02;101019.50;4942973;28;20043;-91
2024/01/10 04:13:38;;;;;;;11.50;5.23;;;;;;;-6.94;69.12;101010.31;4943775;28;20126;-92
2024/01/10 04:16:04;;;;;;;8.87;5.10;;;;;;;-6.95;68.71;101006.06;4943524;28;20100;-93
2024/01/10 04:18:30;;;;;;;10.17;5.97;;;;;;;-6.91;67.69;101024.97;4947000;28;20113;-91
2024/01/10 04:20:56;;;;;;;9.73;5.37;;;;;;;-7.05;68.87;101004.22;4953840;29;20039;-91
2024/01/10 04:23:23;;;;;;;11.70;6.10;;;;;;;-7.04;68.38;101025.03;4950818;28;20037;-92
2024/01/10 04:25:49;;;;;;;14.77;6.63;;;;;;;-7.08;68.61;101023.59;4966252;28;20031;-93
2024/01/10 04:28:15;;;;;;;15.10;6.77;;;;;;;-6.89;68.16;101037.94;4946859;28;20102;-92
2024/01/10 04:30:42;;;;;;;11.10;5.83;;;;;;;-6.97;69.07;101046.34;4938783;28;20062;-93
2024/01/10 04:33:09;;;;;;;9.80;6.07;;;;;;;-7.07;68.68;101033.13;4967047;28;20035;-93
2024/01/10 04:35:35;;;;;;;9.43;5.87;;;;;;;-6.98;68.50;101032.44;4951930;28;20043;-91
2024/01/10 04:38:00;;;;;;;8.50;4.73;;;;;;;-6.79;67.96;101063.31;4960224;28;20109;-92
2024/01/10 04:40:26;;;;;;;9.00;5.70;;;;;;;-7.05;67.66;101015.53;4943041;28;20501;-91
2024/01/10 04:42:52;;;;;;;10.17;6.40;;;;;;;-7.09;68.13;101023.72;4959244;28;20038;-92
2024/01/10 04:45:19;;;;;;;16.70;6.63;;;;;;;-6.90;68.29;101052.81;4974014;28;20053;-91
2024/01/10 04:47:45;;;;;;;11.87;6.13;;;;;;;-6.96;67.78;101032.34;4962378;28;20039;-92
2024/01/10 04:50:11;;;;;;;9.63;5.67;;;;;;;-6.69;66.98;101060.88;4962529;28;20094;-91
2024/01/10 04:52:36;;;;;;;12.97;5.60;;;;;;;-6.82;67.59;101058.34;4959977;28;20037;-91
2024/01/10 04:55:04;;;;;;;11.40;5.20;;;;;;;-6.87;66.96;101036.88;4948216;28;20043;-94
2024/01/10 04:57:30;;;;;;;9.90;5.20;;;;;;;-6.71;66.91;101058.34;4952291;28;20065;-91
2024/01/10 04:59:55;;;;;;;11.17;5.13;;;;;;;-6.77;66.80;101069.28;4955919;28;20027;-90
2024/01/10 05:02:21;;;;;;;12.60;7.43;;;;;;;-6.91;66.97;101041.53;4947981;28;20493;-92
2024/01/10 05:04:49;;;;;;;17.03;10.80;;;;;;;-6.72;67.89;101072.41;4951395;28;20082;-92
2024/01/10 05:07:14;;;;;;;25.20;10.10;;;;;;;-7.00;67.57;101033.50;4944705;28;20034;-91
2024/01/10 05:09:40;;;;;;;22.67;11.17;;;;;;;-6.78;67.42;101067.63;4932087;28;20094;-92
2024/01/10 05:12:06;;;;;;;11.93;8.07;;;;;;;-6.80;67.43;101061.66;4926490;29;20031;-92
2024/01/10 05:14:32;;;;;;;13.23;6.40;;;;;;;-6.78;67.36;101054.53;4949899;28;20030;-92
2024/01/10 05:16:58;;;;;;;10.77;6.30;;;;;;;-6.89;67.24;101053.66;4939768;28;20098;-90
2024/01/10 05:19:28;;;;;;;13.60;5.97;;;;;;;-6.93;66.62;101037.31;4968004;28;20023;-92
2024/01/10 05:21:54;;;;;;;11.53;6.17;;;;;;;-6.99;67.31;101037.78;4948738;29;20122;-92
2024/01/10 05:24:37;;;;;;;16.50;7.60;;;;;;;-6.77;66.63;101069.28;4953299;28;20039;-94
2024/01/10 05:27:09;;;;;;;17.02;8.32;;;;;;;-6.85;66.76;101045.44;4952166;28;20469;-92
2024/01/10 05:29:34;;;;;;;13.20;7.47;;;;;;;-6.94;66.71;101040.91;4966183;28;20037;-93
2024/01/10 05:32:00;;;;;;;13.13;6.57;;;;;;;-6.88;67.18;101069.25;4940143;28;20035;-92
2024/01/10 05:34:26;;;;;;;15.77;6.80;;;;;;;-7.14;67.30;101045.84;4949468;28;21569;-92
2024/01/10 05:36:53;;;;;;;18.57;6.70;;;;;;;-7.12;67.83;101046.56;4927262;28;20043;-92
2024/01/10 05:39:25;;;;;;;12.43;6.97;;;;;;;-6.97;66.95;101056.84;4955067;29;20106;-92
2024/01/10 05:42:07;;;;;;;11.87;7.37;;;;;;;-7.05;67.53;101067.06;4899459;29;20069;-93
2024/01/10 05:44:38;;;;;;;13.93;6.90;;;;;;;-7.08;67.43;101062.03;4891808;29;20048;-93
2024/01/10 05:47:03;;;;;;;9.10;5.93;;;;;;;-7.13;67.21;101054.53;4911133;29;20080;-91
2024/01/10 05:49:32;;;;;;;12.30;6.60;;;;;;;-7.07;67.16;101058.47;4899657;29;20515;-91
2024/01/10 05:52:01;;;;;;;14.57;6.87;;;;;;;-7.38;68.20;101058.09;4912051;29;20092;-92
2024/01/10 05:54:29;;;;;;;10.80;6.40;;;;;;;-7.17;67.91;101069.59;4912429;29;20040;-91
2024/01/10 05:56:57;;;;;;;11.97;6.73;;;;;;;-7.26;68.27;101066.81;4900161;29;20524;-91
2024/01/10 05:59:30;;;;;;;10.87;6.90;;;;;;;-7.15;67.32;101057.25;4898550;29;20031;-93
2024/01/10 06:01:58;;;;;;;13.57;6.10;;;;;;;-6.77;67.34;101095.47;4892987;29;20048;-93
2024/01/10 06:04:24;;;;;;;14.03;6.63;;;;;;;-6.89;66.70;101085.91;4891741;29;20131;-93
2024/01/10 06:06:50;;;;;;;9.83;6.13;;;;;;;-6.76;67.11;101093.72;4898141;29;20046;-92
2024/01/10 06:09:21;;;;;;;10.00;5.70;;;;;;;-6.77;66.97;101071.91;4902714;29;20071;-91
2024/01/10 06:18:22;;;;;;;8.33;5.67;;;;;;;-7.20;68.82;101079.47;4907500;29;20047;-95
2024/01/10 06:21:23;;;;;;;9.53;6.57;;;;;;;-7.38;68.92;101058.09;4907551;29;20019;-94
2024/01/10 06:29:02;;;;;;;12.47;8.90;;;;;;;-7.32;68.63;101070.72;5017626;28;20527;-94
2024/01/10 06:31:27;;;;;;;10.97;5.93;;;;;;;-7.18;69.47;101090.66;4958367;28;20022;-92
2024/01/10 06:34:05;;;;;;;10.20;6.30;;;;;;;-7.02;67.78;101085.16;4981262;28;20022;-94
2024/01/10 06:36:38;;;;;;;10.50;7.00;;;;;;;-7.05;68.62;101077.53;4989925;28;20025;-96
2024/01/10 06:42:13;;;;;;;15.23;7.90;;;;;;;-6.69;67.73;101068.72;5043070;22;20050;-95
2024/01/10 06:47:15;;;;;;;19.30;12.67;;;;;;;-6.33;67.43;101088.72;5716603;23;20021;-96
2024/01/10 06:49:53;;;;;;;14.27;8.87;;;;;;;-6.36;67.51;101095.97;4976293;28;20059;-95
2024/01/10 07:04:00;;;;;;;8.60;5.93;;;;;;;-6.56;65.88;101098.28;4875030;29;20049;-96
2024/01/10 07:12:14;;;;;;;10.40;5.90;;;;;;;-6.40;65.33;101102.38;4983748;23;20093;-94
2024/01/10 07:18:40;;;;;;;12.57;6.83;;;;;;;-6.38;67.04;101122.28;5003391;28;20058;-91
2024/01/10 07:21:41;;;;;;;11.35;7.00;;;;;;;-6.12;65.49;101122.94;4985281;28;20329;-93
2024/01/10 07:24:19;;;;;;;;;;;;;;;;;;;;;
2024/01/10 07:26:52;;;;;;;15.97;6.03;;;;;;;-6.13;64.84;101110.75;4971308;28;20312;-92
2024/01/10 07:29:48;;;;;;;11.27;7.50;;;;;;;-5.92;65.47;101121.34;4958135;28;20030;-94
2024/01/10 07:32:20;;;;;;;13.47;8.20;;;;;;;-5.76;65.04;101123.63;4974511;28;20026;-96
2024/01/10 07:34:46;;;;;;;34.50;17.93;;;;;;;-5.78;63.83;101090.63;4956069;28;20034;-94
2024/01/10 07:37:12;;;;;;;19.40;10.20;;;;;;;-5.71;64.16;101097.03;4952503;28;20026;-90
2024/01/10 07:39:38;;;;;;;15.93;9.93;;;;;;;-5.40;62.98;101102.50;4954416;28;20093;-94
2024/01/10 07:42:13;;;;;;;19.23;11.20;;;;;;;-5.41;63.08;101083.28;4957911;28;20042;-95
2024/01/10 07:45:14;;;;;;;18.33;10.30;;;;;;;-5.23;61.59;101107.22;4989393;28;20030;-95
2024/01/10 07:47:42;;;;;;;20.10;9.88;;;;;;;-5.16;62.27;101097.09;4907266;29;20043;-92
2024/01/10 07:50:36;;;;;;;21.80;10.35;;;;;;;-5.16;62.06;101084.78;4888226;29;20040;-93
2024/01/10 07:53:31;;;;;;;21.00;10.63;;;;;;;-5.04;62.51;101080.34;4914701;29;20040;-94
2024/01/10 07:59:36;;;;;;;18.70;11.18;;;;;;;-4.53;60.39;101112.94;4898125;29;20048;-95
2024/01/10 08:08:47;;;;;;;9.57;6.05;;;;;;;-4.29;58.90;101089.03;4889304;29;20132;-92
2024/01/10 08:11:12;;;;;;;13.30;6.32;;;;;;;-4.20;57.58;101096.13;4864749;29;20147;-93
2024/01/10 08:13:54;;;;;;;12.48;6.47;;;;;;;-4.04;57.69;101118.53;4877325;29;20052;-94
2024/01/10 08:16:38;;;;;;;12.18;6.60;;;;;;;-4.13;57.41;101105.19;4919836;29;20055;-92
2024/01/10 08:19:06;;;;;;;11.10;6.43;;;;;;;-4.13;57.03;101117.50;4952542;28;20105;-93
2024/01/10 08:21:31;;;;;;;14.65;6.60;;;;;;;-4.19;58.01;101102.22;4954662;28;20053;-92
2024/01/10 08:23:57;;;;;;;20.83;11.77;;;;;;;-3.95;56.58;101112.47;4951760;28;20066;-93
2024/01/10 08:26:23;;;;;;;18.70;9.23;;;;;;;-3.91;57.76;101103.34;4959108;28;20084;-92
2024/01/10 08:28:48;;;;;;;16.83;8.60;;;;;;;-3.80;58.53;101108.50;4970692;28;20034;-94
2024/01/10 08:31:36;;;;;;;13.30;7.57;;;;;;;-3.69;57.47;101103.16;4968844;28;20095;-93
2024/01/10 08:34:04;;;;;;;18.42;8.07;;;;;;;-3.39;55.97;101116.44;4974150;28;20572;-91
2024/01/10 08:36:51;;;;;;;18.48;9.20;;;;;;;-3.68;57.46;101101.38;4954557;28;20038;-93
2024/01/10 08:42:40;;;;;;;13.98;7.00;;;;;;;-3.59;57.36;101095.31;4997967;28;20049;-95
2024/01/10 08:45:30;;;;;;;11.20;6.55;;;;;;;-3.66;58.43;101081.00;4996658;28;20030;-95
2024/01/10 08:48:13;;;;;;;16.60;8.50;;;;;;;-3.35;58.57;101108.13;4967539;28;20030;-95
2024/01/10 08:51:10;;;;;;;17.70;9.73;;;;;;;-3.37;58.32;101109.22;4964160;28;20129;-94
2024/01/10 09:00:24;;;;;;;15.70;9.45;;;;;;;-4.10;60.20;101075.97;4959871;28;20407;-91
2024/01/10 09:02:53;;;;;;;15.45;7.32;;;;;;;-4.08;60.23;101076.69;4949869;28;20038;-93
2024/01/10 09:05:21;;;;;;;10.15;7.10;;;;;;;-4.02;59.53;101075.34;4965633;28;20146;-90
2024/01/10 09:07:47;;;;;;;14.82;8.35;;;;;;;-3.90;60.93;101089.22;4955865;28;20406;-94
2024/01/10 09:10:13;;;;;;;12.27;7.75;;;;;;;-3.83;57.66;101069.31;4987552;28;20136;-94
2024/01/10 09:12:48;;;;;;;14.10;7.70;;;;;;;-3.54;57.45;101073.84;4970414;28;20054;-94
2024/01/10 09:15:25;;;;;;;16.55;7.95;;;;;;;-3.43;57.02;101070.25;4953543;28;20026;-94
2024/01/10 09:17:54;;;;;;;10.73;6.28;;;;;;;-3.38;55.39;101074.16;4961424;28;20054;-92
2024/01/10 09:20:49;;;;;;;12.32;5.78;;;;;;;-3.38;54.94;101052.25;4955773;28;20106;-95
2024/01/10 09:23:21;;;;;;;8.45;5.40;;;;;;;-3.20;52.64;101066.41;4945779;28;20041;-94
2024/01/10 09:26:02;;;;;;;9.93;5.45;;;;;;;-3.36;53.78;101058.22;4973977;28;20042;-95
2024/01/10 09:32:12;;;;;;;;;;;;;;;;;;;;;
2024/01/10 09:43:43;;;;;;;;;;;;;;;;;;;;;
2024/01/10 09:46:17;;;;;;;22.80;13.77;;;;;;;-3.20;53.47;101047.97;5012185;28;20118;-95
2024/01/10 09:49:09;;;;;;;10.48;6.88;;;;;;;-3.27;52.91;101024.00;4978321;28;20500;-95
2024/01/10 09:51:38;;;;;;;11.10;6.47;;;;;;;-3.09;54.06;101053.13;4975878;28;20034;-94
2024/01/10 09:54:06;;;;;;;12.50;5.78;;;;;;;-2.89;53.02;101039.94;4972300;28;20045;-93
2024/01/10 09:56:59;;;;;;;24.08;11.52;;;;;;;-2.67;47.60;101044.91;4990476;28;20014;-94
2024/01/10 09:59:33;;;;;;;24.75;9.50;;;;;;;-2.53;50.59;101038.38;4989564;28;20033;-94
2024/01/10 10:02:22;;;;;;;10.80;7.15;;;;;;;-2.53;50.46;101034.91;4975596;28;20046;-92
2024/01/10 10:05:04;;;;;;;7.05;4.35;;;;;;;-2.29;48.46;101039.72;4991621;28;20104;-93
2024/01/10 10:08:06;;;;;;;;;;;;;;;;;;;;;
2024/01/10 10:11:08;;;;;;;6.82;4.03;;;;;;;-2.19;48.62;101043.16;4994666;28;20113;-95
2024/01/10 10:13:41;;;;;;;7.83;3.93;;;;;;;-2.00;47.74;101057.25;4992149;28;20028;-93
2024/01/10 10:16:11;;;;;;;5.60;3.17;;;;;;;-2.17;48.33;101021.91;4967716;28;20022;-90
2024/01/10 10:18:46;;;;;;;;;;;;;;;;;;;;;
2024/01/10 10:21:24;;;;;;;7.18;3.97;;;;;;;-1.75;49.11;101030.19;4990091;28;20104;-91
2024/01/10 10:24:14;;;;;;;10.82;6.13;;;;;;;-1.61;50.08;101023.56;4972015;28;20037;-92
2024/01/10 10:26:43;;;;;;;10.15;4.25;;;;;;;-1.57;48.75;100995.88;4983082;28;20018;-91
2024/01/10 10:29:49;;;;;;;10.00;4.88;;;;;;;-1.36;48.60;101026.47;4971131;28;20013;-92
2024/01/10 10:32:14;;;;;;;8.68;5.68;;;;;;;-1.48;47.51;101000.25;4992877;28;20034;-94
2024/01/10 10:34:43;;;;;;;8.77;5.28;;;;;;;-1.53;46.92;100999.06;4970355;28;20037;-94
2024/01/10 10:37:09;;;;;;;7.53;4.40;;;;;;;-1.41;47.07;101005.81;4964144;28;20026;-91
2024/01/10 10:39:38;;;;;;;10.35;4.75;;;;;;;-1.12;46.17;101013.50;4979222;28;20057;-91
2024/01/10 10:42:07;;;;;;;7.63;3.92;;;;;;;-1.23;46.18;100980.19;4983406;28;20026;-92
2024/01/10 10:44:51;;;;;;;12.32;4.78;;;;;;;-1.32;46.65;100975.81;4971540;28;20050;-94
2024/01/10 10:47:20;;;;;;;9.05;5.68;;;;;;;-1.32;46.35;100990.84;4968920;28;20041;-90
2024/01/10 10:50:09;;;;;;;10.50;6.07;;;;;;;-1.25;47.07;100997.19;4983347;28;20041;-93
2024/01/10 10:52:45;;;;;;;11.25;6.80;;;;;;;-1.28;45.51;100971.06;4970006;28;20031;-94
2024/01/10 11:12:49;;;;;;;49.25;23.88;;;;;;;-1.22;46.77;100950.16;4920289;29;20053;-91
2024/01/10 11:15:27;;;;;;;14.30;7.28;;;;;;;-1.02;45.60;100955.25;4909307;29;20048;-94
2024/01/10 11:18:10;;;;;;;15.52;5.97;;;;;;;-0.98;48.06;100947.84;4929124;29;20047;-92
2024/01/10 11:20:59;;;;;;;13.88;5.90;;;;;;;-1.16;47.71;100930.22;4921575;29;20035;-92
2024/01/10 11:23:51;;;;;;;7.90;3.90;;;;;;;-0.87;42.03;100951.09;4943885;28;20109;-92
2024/01/10 11:26:19;;;;;;;9.35;3.95;;;;;;;-1.03;41.92;100935.09;4972808;28;20073;-89
2024/01/10 11:28:44;;;;;;;10.73;4.68;;;;;;;-0.95;40.78;100934.34;4959072;28;20030;-90
2024/01/10 11:31:12;;;;;;;15.18;8.13;;;;;;;-0.92;43.22;100931.38;4969364;28;20038;-93
2024/01/10 11:33:49;;;;;;;9.82;5.65;;;;;;;-0.92;45.58;100929.56;4957194;28;20030;-91
2024/01/10 11:36:15;;;;;;;13.80;8.30;;;;;;;-0.84;46.23;100940.19;4960561;28;20045;-94
2024/01/10 11:41:56;;;;;;;10.52;5.57;;;;;;;-0.87;43.73;100913.22;5003295;28;20044;-95
2024/01/10 11:44:33;;;;;;;10.48;4.90;;;;;;;-0.90;43.23;100910.91;5003905;28;20029;-96
2024/01/10 11:46:59;;;;;;;11.10;4.90;;;;;;;-0.79;42.84;100937.06;4970036;28;20030;-92
2024/01/10 11:49:25;;;;;;;7.95;4.85;;;;;;;-1.00;43.75;100912.81;4970109;28;20116;-93
2024/01/10 11:51:56;;;;;;;9.00;5.20;;;;;;;-1.08;47.36;100900.34;4981510;28;20038;-93
2024/01/10 11:54:38;;;;;;;10.95;5.22;;;;;;;-1.12;47.98;100918.34;4962653;28;20041;-89
2024/01/10 11:57:25;;;;;;;;;;;;;;;-0.89;46.32;100928.44;4994169;28;20014;-90
2024/01/10 11:59:51;;;;;;;9.15;4.00;;;;;;;-0.84;46.73;100910.28;4985689;28;19913;-88
2024/01/10 12:05:52;;;;;;;9.60;5.33;;;;;;;-0.53;45.86;100913.25;5019113;28;20041;-90
2024/01/10 12:08:24;;;;;;;53.33;27.02;;;;;;;-0.66;46.53;100897.81;4970282;28;20033;-90
2024/01/10 12:10:57;;;;;;;31.10;15.18;;;;;;;-0.58;46.00;100906.78;4971533;28;20423;-92
2024/01/10 12:13:27;;;;;;;10.68;6.07;;;;;;;-0.48;47.19;100895.09;4974685;28;20084;-94
2024/01/10 12:15:54;;;;;;;11.40;5.35;;;;;;;-0.44;45.92;100885.00;4992440;28;20026;-94
2024/01/10 12:18:57;;;;;;;11.05;4.80;;;;;;;-0.39;47.03;100873.94;4991487;28;20570;-93
2024/01/10 12:21:41;;;;;;;11.18;5.35;;;;;;;-0.26;46.33;100892.88;4941703;29;20536;-92
2024/01/10 12:24:07;;;;;;;11.75;4.95;;;;;;;-0.34;47.04;100883.06;4940395;29;20028;-91
2024/01/10 12:26:33;;;;;;;13.70;4.70;;;;;;;-0.37;44.93;100878.13;4908780;29;20095;-94
2024/01/10 12:29:02;;;;;;;8.48;4.90;;;;;;;-0.35;44.92;100873.50;4927597;29;20127;-93
2024/01/10 12:31:31;;;;;;;6.45;4.05;;;;;;;-0.26;47.20;100871.69;4946490;29;20039;-94
2024/01/10 12:34:17;;;;;;;7.72;4.32;;;;;;;-0.24;46.76;100883.78;4911167;29;20038;-91
2024/01/10 12:37:05;;;;;;;6.50;4.38;;;;;;;-0.47;47.08;100869.47;4898129;29;20028;-95
2024/01/10 12:39:49;;;;;;;11.65;5.28;;;;;;;-0.33;48.81;100866.22;4906818;29;20051;-95
2024/01/10 12:42:15;;;;;;;9.63;4.80;;;;;;;-0.20;46.88;100889.59;4920194;29;20602;-93
2024/01/10 12:44:44;;;;;;;8.30;4.90;;;;;;;-0.29;47.95;100869.34;4897286;29;20044;-92
2024/01/10 12:47:19;;;;;;;16.15;6.13;;;;;;;-0.26;46.24;100856.63;4955249;28;20069;-92
2024/01/10 12:49:46;;;;;;;12.88;5.07;;;;;;;-0.44;44.28;100875.25;4965208;28;20573;-91
2024/01/10 12:52:13;;;;;;;7.10;4.30;;;;;;;-0.45;44.23;100864.84;4978036;28;20058;-92
2024/01/10 12:54:48;;;;;;;9.70;4.88;;;;;;;-0.35;45.82;100867.34;4965214;28;20038;-93
2024/01/10 12:57:31;;;;;;;9.63;4.80;;;;;;;-0.34;45.84;100861.06;4950960;28;20113;-92
2024/01/10 12:59:56;;;;;;;12.30;5.78;;;;;;;-0.28;46.21;100868.38;4969767;28;20026;-91
2024/01/10 13:02:22;;;;;;;12.57;5.35;;;;;;;-0.29;46.07;100879.94;4984186;28;20053;-92
2024/01/10 13:04:48;;;;;;;9.00;5.45;;;;;;;-0.24;47.07;100886.41;4972647;28;20428;-92
2024/01/10 13:07:13;;;;;;;10.93;5.00;;;;;;;-0.26;46.46;100880.47;4951734;28;20038;-90
2024/01/10 13:09:42;;;;;;;9.93;5.00;;;;;;;-0.31;45.36;100868.69;4970128;28;20029;-91
2024/01/10 13:12:10;;;;;;;13.77;5.32;;;;;;;-0.19;46.09;100866.56;4968432;28;20031;-94
2024/01/10 13:14:36;;;;;;;13.70;5.38;;;;;;;-0.06;47.47;100886.31;4967647;28;20557;-91
2024/01/10 13:17:05;;;;;;;8.10;5.10;;;;;;;-0.15;47.54;100873.22;4967901;28;20108;-91